createdAt,value
2023-05-11T00:00:33.009Z,5.15
2023-05-11T00:02:59.631Z,5.43
2023-05-11T00:05:26.239Z,5.57
2023-05-11T00:07:52.752Z,5.55
2023-05-11T00:10:19.506Z,5.10
2023-05-11T00:12:46.154Z,4.88
2023-05-11T00:15:12.671Z,5.25
2023-05-11T00:17:39.217Z,5.50
2023-05-11T00:20:06.354Z,5.10
2023-05-11T00:22:32.841Z,5.43
2023-05-11T00:24:59.348Z,5.18
2023-05-11T00:27:25.999Z,5.45
2023-05-11T00:29:52.510Z,5.05
2023-05-11T00:32:19.015Z,5.50
2023-05-11T00:34:45.842Z,5.30
2023-05-11T00:37:12.407Z,5.55
2023-05-11T00:39:40.611Z,5.65
2023-05-11T00:42:07.426Z,6.07
2023-05-11T00:44:33.953Z,5.63
2023-05-11T00:47:00.759Z,5.88
2023-05-11T00:49:27.712Z,6.55
2023-05-11T00:51:54.300Z,6.63
2023-05-11T00:54:21.205Z,6.43
2023-05-11T00:56:48.488Z,5.95
2023-05-11T00:59:15.210Z,5.85
2023-05-11T01:01:41.944Z,6.15
2023-05-11T01:04:08.701Z,5.80
2023-05-11T01:06:46.612Z,6.18
2023-05-11T01:10:01.398Z,6.32
2023-05-11T01:12:49.717Z,7.20
2023-05-11T01:15:30.863Z,6.07
2023-05-11T01:18:03.406Z,6.22
2023-05-11T01:20:30.275Z,6.88
2023-05-11T01:23:43.129Z,6.63
2023-05-11T01:26:19.029Z,7.40
2023-05-11T01:28:56.244Z,6.60
2023-05-11T01:31:26.073Z,6.88
2023-05-11T01:33:58.679Z,6.93
2023-05-11T01:36:30.128Z,7.55
2023-05-11T01:39:01.497Z,8.00
2023-05-11T01:41:28.473Z,7.07
2023-05-11T01:43:59.822Z,6.97
2023-05-11T01:46:27.483Z,6.65
2023-05-11T01:48:56.260Z,7.07
2023-05-11T01:51:24.206Z,6.85
2023-05-11T01:53:51.730Z,7.57
2023-05-11T01:56:20.102Z,7.68
2023-05-11T01:58:48.208Z,7.30
2023-05-11T02:01:18.168Z,7.13
2023-05-11T02:03:46.453Z,6.80
2023-05-11T02:06:14.418Z,6.80
2023-05-11T02:08:42.045Z,7.65
2023-05-11T02:11:10.483Z,7.30
2023-05-11T02:13:39.244Z,7.63
2023-05-11T02:16:06.732Z,8.85
2023-05-11T02:18:34.166Z,8.35
2023-05-11T02:21:01.438Z,8.65
2023-05-11T02:23:30.648Z,8.88
2023-05-11T02:25:57.738Z,9.70
2023-05-11T02:28:24.449Z,9.20
2023-05-11T02:30:54.147Z,9.63
2023-05-11T02:33:26.337Z,9.57
2023-05-11T02:35:55.525Z,10.10
2023-05-11T02:38:30.849Z,10.10
2023-05-11T02:40:58.975Z,13.38
2023-05-11T02:43:30.736Z,11.30
2023-05-11T02:46:03.877Z,13.55
2023-05-11T02:48:39.113Z,14.27
2023-05-11T02:51:08.672Z,14.52
2023-05-11T02:53:41.598Z,12.98
2023-05-11T02:56:08.893Z,13.50
2023-05-11T02:58:35.856Z,13.43
2023-05-11T03:01:19.814Z,13.73
2023-05-11T03:03:46.633Z,12.70
2023-05-11T03:06:13.447Z,12.65
2023-05-11T03:08:41.270Z,12.82
2023-05-11T03:11:09.132Z,13.60
2023-05-11T03:13:35.796Z,14.18
2023-05-11T03:16:05.107Z,13.35
2023-05-11T03:18:33.319Z,13.07
2023-05-11T03:21:00.749Z,13.43
2023-05-11T03:23:28.379Z,12.32
2023-05-11T03:25:55.237Z,12.30
2023-05-11T03:28:23.004Z,12.35
2023-05-11T03:31:00.517Z,11.85
2023-05-11T03:33:27.155Z,12.30
2023-05-11T03:35:54.134Z,11.50
2023-05-11T03:38:24.566Z,11.27
2023-05-11T03:40:52.666Z,11.68
2023-05-11T03:43:21.061Z,11.70
2023-05-11T03:45:53.263Z,11.40
2023-05-11T03:48:20.924Z,11.05
2023-05-11T03:50:47.789Z,10.60
2023-05-11T03:53:15.839Z,10.70
2023-05-11T03:55:42.838Z,10.40
2023-05-11T03:58:09.608Z,9.75
2023-05-11T04:00:42.737Z,10.45
2023-05-11T04:03:09.975Z,10.07
2023-05-11T04:05:38.084Z,10.13
2023-05-11T04:08:07.630Z,9.32
2023-05-11T04:10:34.200Z,9.48
2023-05-11T04:13:00.702Z,9.43
2023-05-11T04:15:27.317Z,9.85
2023-05-11T04:17:53.879Z,8.70
2023-05-11T04:20:20.790Z,8.95
2023-05-11T04:22:47.505Z,8.20
2023-05-11T04:25:14.685Z,8.38
2023-05-11T04:27:41.249Z,7.88
2023-05-11T04:30:08.226Z,8.20
2023-05-11T04:32:35.015Z,7.90
2023-05-11T04:35:02.126Z,7.57
2023-05-11T04:37:32.584Z,7.50
2023-05-11T04:40:00.897Z,7.10
2023-05-11T04:42:27.430Z,7.78
2023-05-11T04:44:56.103Z,7.57
2023-05-11T04:47:22.636Z,6.93
2023-05-11T04:49:49.226Z,7.30
2023-05-11T04:52:15.997Z,6.72
2023-05-11T04:54:45.215Z,7.03
2023-05-11T04:57:11.758Z,6.78
2023-05-11T04:59:38.553Z,6.70
2023-05-11T05:02:05.164Z,6.60
2023-05-11T05:04:32.969Z,7.45
2023-05-11T05:07:01.347Z,6.20
2023-05-11T05:09:27.841Z,6.15
2023-05-11T05:11:54.362Z,6.68
2023-05-11T05:14:20.875Z,6.43
2023-05-11T05:16:47.528Z,6.13
2023-05-11T05:19:14.206Z,6.03
2023-05-11T05:21:41.147Z,5.97
2023-05-11T05:24:11.076Z,5.95
2023-05-11T05:26:37.777Z,5.88
2023-05-11T05:29:05.465Z,5.93
2023-05-11T05:31:32.239Z,6.95
2023-05-11T05:33:59.138Z,6.20
2023-05-11T05:36:25.756Z,5.60
2023-05-11T05:38:52.393Z,5.70
2023-05-11T05:41:18.961Z,6.15
2023-05-11T05:43:46.091Z,6.15
2023-05-11T05:46:14.362Z,5.97
2023-05-11T05:48:41.716Z,6.00
2023-05-11T05:51:09.053Z,5.45
2023-05-11T05:53:35.660Z,5.70
2023-05-11T05:56:02.189Z,4.97
2023-05-11T05:58:29.252Z,5.65
2023-05-11T06:00:56.141Z,5.60
2023-05-11T06:03:23.457Z,5.50
2023-05-11T06:05:50.055Z,5.68
2023-05-11T06:08:16.886Z,5.45
2023-05-11T06:10:43.559Z,5.43
2023-05-11T06:13:11.066Z,5.18
2023-05-11T06:15:41.925Z,4.40
2023-05-11T06:18:16.936Z,4.93
2023-05-11T06:20:45.416Z,4.93
2023-05-11T06:23:13.354Z,4.68
2023-05-11T06:25:42.434Z,4.53
2023-05-11T06:28:09.446Z,5.15
2023-05-11T06:30:37.271Z,4.60
2023-05-11T06:33:06.182Z,4.40
2023-05-11T06:35:33.668Z,3.95
2023-05-11T06:38:00.308Z,4.00
2023-05-11T06:40:27.912Z,4.63
2023-05-11T06:42:54.537Z,4.18
2023-05-11T06:45:21.650Z,3.50
2023-05-11T06:47:48.418Z,3.88
2023-05-11T06:50:15.011Z,3.80
2023-05-11T06:52:41.591Z,3.50
2023-05-11T06:55:08.513Z,3.85
2023-05-11T06:57:34.990Z,3.10
2023-05-11T07:00:01.645Z,3.20
2023-05-11T07:02:28.549Z,3.03
2023-05-11T07:04:55.094Z,3.25
2023-05-11T07:07:22.693Z,3.20
2023-05-11T07:09:49.216Z,3.20
2023-05-11T07:12:15.792Z,3.25
2023-05-11T07:14:42.334Z,3.30
2023-05-11T07:17:09.277Z,3.10
2023-05-11T07:19:35.818Z,3.35
2023-05-11T07:22:02.505Z,3.30
2023-05-11T07:24:29.083Z,3.15
2023-05-11T07:26:57.342Z,2.70
2023-05-11T07:29:23.937Z,3.05
2023-05-11T07:31:50.508Z,2.88
2023-05-11T07:34:17.099Z,3.22
2023-05-11T07:36:43.679Z,2.92
2023-05-11T07:39:10.774Z,3.25
2023-05-11T07:41:37.376Z,2.75
2023-05-11T07:44:04.210Z,3.13
2023-05-11T07:46:30.841Z,2.75
2023-05-11T07:49:13.610Z,3.15
2023-05-11T07:51:42.140Z,2.70
2023-05-11T07:54:08.793Z,2.97
2023-05-11T07:56:35.331Z,2.80
2023-05-11T07:59:01.847Z,2.47
2023-05-11T08:01:28.443Z,2.65
2023-05-11T08:03:54.969Z,2.38
2023-05-11T08:06:21.632Z,2.83
2023-05-11T08:08:48.136Z,2.40
2023-05-11T08:11:14.662Z,2.53
2023-05-11T08:13:41.190Z,2.50
2023-05-11T08:16:07.803Z,2.45
2023-05-11T08:18:34.388Z,2.25
2023-05-11T08:21:00.929Z,2.33
2023-05-11T08:23:27.446Z,2.30
2023-05-11T08:25:55.972Z,2.47
2023-05-11T08:28:22.639Z,3.38
2023-05-11T08:30:56.472Z,2.60
2023-05-11T08:35:56.404Z,2.40
2023-05-11T08:38:22.916Z,2.45
2023-05-11T08:40:51.328Z,2.92
2023-05-11T08:43:18.980Z,2.40
2023-05-11T08:45:49.339Z,2.47
2023-05-11T08:48:17.903Z,2.30
2023-05-11T08:50:48.006Z,2.20
2023-05-11T08:53:14.759Z,2.65
2023-05-11T08:55:42.739Z,2.92
2023-05-11T08:58:09.878Z,2.28
2023-05-11T09:00:36.833Z,2.63
2023-05-11T09:03:04.459Z,2.13
2023-05-11T09:05:31.672Z,2.33
2023-05-11T09:08:04.262Z,1.75
2023-05-11T09:10:30.795Z,2.05
2023-05-11T09:12:57.326Z,1.80
2023-05-11T09:15:23.891Z,2.38
2023-05-11T09:17:50.454Z,2.40
2023-05-11T09:20:26.864Z,2.10
2023-05-11T09:22:54.010Z,2.00
2023-05-11T09:25:22.073Z,2.10
2023-05-11T09:27:48.662Z,1.85
2023-05-11T09:32:54.484Z,2.05
2023-05-11T09:35:31.322Z,2.33
2023-05-11T09:38:02.460Z,2.03
2023-05-11T09:40:34.322Z,1.77
2023-05-11T09:43:02.136Z,2.10
2023-05-11T09:45:42.011Z,2.25
2023-05-11T09:48:21.107Z,2.10
2023-05-11T09:50:48.738Z,2.10
2023-05-11T09:53:15.442Z,2.08
2023-05-11T09:55:51.730Z,1.98
2023-05-11T09:58:18.267Z,1.90
2023-05-11T10:00:50.962Z,1.73
2023-05-11T10:03:17.687Z,1.98
2023-05-11T10:05:57.091Z,1.83
2023-05-11T10:08:31.052Z,2.13
2023-05-11T10:10:57.894Z,1.83
2023-05-11T10:13:24.779Z,1.52
2023-05-11T10:15:54.649Z,1.70
2023-05-11T10:18:21.312Z,1.97
2023-05-11T10:20:47.828Z,1.80
2023-05-11T10:23:15.147Z,1.35
2023-05-11T10:25:42.193Z,1.73
2023-05-11T10:28:09.487Z,1.70
2023-05-11T10:30:37.203Z,1.40
2023-05-11T10:33:04.374Z,1.73
2023-05-11T10:35:31.629Z,1.48
2023-05-11T10:37:58.441Z,1.88
2023-05-11T10:40:25.271Z,1.42
2023-05-11T10:43:18.306Z,1.70
2023-05-11T10:46:03.217Z,1.48
2023-05-11T10:48:39.558Z,1.83
2023-05-11T10:51:16.959Z,1.35
2023-05-11T10:53:55.607Z,1.40
2023-05-11T10:56:44.095Z,1.50
2023-05-11T10:59:36.107Z,1.50
2023-05-11T11:02:04.052Z,1.58
2023-05-11T11:04:48.078Z,1.52
2023-05-11T11:07:18.244Z,1.50
2023-05-11T11:10:07.050Z,1.42
2023-05-11T11:12:36.517Z,1.40
2023-05-11T11:15:06.278Z,1.30
2023-05-11T11:17:35.040Z,1.70
2023-05-11T11:20:08.908Z,1.42
2023-05-11T11:22:35.561Z,1.50
2023-05-11T11:25:05.064Z,1.63
2023-05-11T11:27:40.619Z,1.80
2023-05-11T11:30:23.350Z,1.73
2023-05-11T11:32:52.048Z,1.40
2023-05-11T11:35:40.570Z,2.38
2023-05-11T11:38:15.223Z,1.60
2023-05-11T11:43:19.064Z,1.67
2023-05-11T11:45:59.611Z,1.90
2023-05-11T11:48:35.506Z,1.70
2023-05-11T11:51:04.622Z,1.80
2023-05-11T11:53:44.605Z,1.60
2023-05-11T11:56:14.141Z,1.23
2023-05-11T11:58:44.397Z,1.50
2023-05-11T12:01:21.307Z,1.70
2023-05-11T12:03:54.518Z,1.50
2023-05-11T12:06:26.696Z,1.60
2023-05-11T12:08:53.678Z,1.60
2023-05-11T12:11:23.105Z,1.50
2023-05-11T12:13:49.709Z,1.55
2023-05-11T12:16:17.297Z,1.30
2023-05-11T12:18:52.968Z,1.40
2023-05-11T12:21:27.717Z,1.20
2023-05-11T12:23:55.817Z,1.23
2023-05-11T12:26:24.249Z,1.30
2023-05-11T12:28:51.676Z,1.50
2023-05-11T12:31:18.728Z,1.38
2023-05-11T12:33:47.025Z,1.10
2023-05-11T12:36:15.538Z,1.30
2023-05-11T12:38:46.027Z,1.20
2023-05-11T12:43:46.097Z,1.38
2023-05-11T12:46:13.415Z,1.10
2023-05-11T12:48:40.533Z,1.20
2023-05-11T12:51:07.142Z,1.20
2023-05-11T12:53:37.029Z,1.20
2023-05-11T12:56:04.682Z,1.20
2023-05-11T12:58:38.891Z,1.55
2023-05-11T13:01:06.857Z,1.50
2023-05-11T13:03:35.290Z,1.25
2023-05-11T13:06:09.548Z,1.20
2023-05-11T13:08:46.522Z,1.17
2023-05-11T13:11:17.392Z,1.10
2023-05-11T13:13:44.638Z,1.10
2023-05-11T13:16:11.218Z,1.25
2023-05-11T13:18:37.765Z,1.20
2023-05-11T13:21:06.245Z,1.40
2023-05-11T13:23:32.980Z,1.60
2023-05-11T13:25:59.473Z,1.42
2023-05-11T13:28:26.453Z,1.60
2023-05-11T13:31:00.145Z,1.30
2023-05-11T13:33:26.898Z,1.50
2023-05-11T13:35:53.392Z,1.55
2023-05-11T13:38:19.958Z,1.60
2023-05-11T13:40:46.682Z,1.45
2023-05-11T13:43:13.340Z,1.50
2023-05-11T13:45:42.794Z,1.17
2023-05-11T13:48:09.367Z,1.42
2023-05-11T13:50:35.975Z,1.38
2023-05-11T13:53:02.534Z,1.60
2023-05-11T13:55:29.558Z,1.30
2023-05-11T13:57:56.840Z,1.40
2023-05-11T14:00:23.507Z,1.20
2023-05-11T14:02:51.469Z,1.67
2023-05-11T14:05:18.601Z,1.70
2023-05-11T14:07:48.278Z,1.60
2023-05-11T14:10:16.801Z,1.50
2023-05-11T14:12:43.491Z,1.70
2023-05-11T14:15:10.603Z,1.50
2023-05-11T14:17:37.434Z,1.30
2023-05-11T14:20:05.233Z,1.40
2023-05-11T14:22:31.722Z,1.50
2023-05-11T14:24:58.244Z,1.35
2023-05-11T14:27:24.746Z,1.70
2023-05-11T14:29:52.286Z,1.52
2023-05-11T14:32:19.463Z,1.30
2023-05-11T14:34:46.220Z,1.45
2023-05-11T14:37:13.238Z,1.80
2023-05-11T14:39:42.659Z,1.42
2023-05-11T14:42:09.976Z,1.60
2023-05-11T14:44:36.572Z,1.90
2023-05-11T14:47:03.118Z,1.40
2023-05-11T14:49:29.664Z,1.70
2023-05-11T14:51:57.619Z,1.40
2023-05-11T14:54:24.152Z,1.45
2023-05-11T14:56:54.020Z,1.42
2023-05-11T14:59:21.619Z,1.47
2023-05-11T15:01:49.395Z,1.48
2023-05-11T15:04:16.847Z,1.70
2023-05-11T15:06:43.755Z,1.63
2023-05-11T15:09:10.606Z,1.48
2023-05-11T15:11:40.113Z,1.60
2023-05-11T15:14:10.608Z,1.52
2023-05-11T15:16:37.482Z,1.70
2023-05-11T15:19:05.533Z,1.48
2023-05-11T15:21:32.577Z,1.48
2023-05-11T15:23:59.127Z,1.40
2023-05-11T15:26:25.998Z,1.42
2023-05-11T15:28:52.540Z,2.28
2023-05-11T15:31:19.324Z,1.30
2023-05-11T15:33:45.939Z,1.25
2023-05-11T15:36:13.922Z,1.50
2023-05-11T15:38:40.770Z,1.85
2023-05-11T15:41:07.865Z,1.30
2023-05-11T15:43:34.505Z,1.42
2023-05-11T15:46:03.478Z,1.70
2023-05-11T15:48:30.192Z,1.25
2023-05-11T15:50:58.803Z,1.65
2023-05-11T15:53:25.421Z,1.80
2023-05-11T15:55:55.136Z,1.40
2023-05-11T15:58:22.343Z,1.60
2023-05-11T16:00:49.148Z,1.30
2023-05-11T16:03:15.888Z,1.60
2023-05-11T16:05:42.663Z,1.58
2023-05-11T16:08:09.212Z,1.48
2023-05-11T16:10:35.772Z,1.60
2023-05-11T16:13:02.285Z,1.55
2023-05-11T16:15:31.187Z,1.40
2023-05-11T16:17:58.458Z,1.48
2023-05-11T16:20:25.227Z,2.00
2023-05-11T16:22:51.759Z,1.65
2023-05-11T16:25:18.333Z,1.30
2023-05-11T16:27:44.832Z,1.42
2023-05-11T16:30:23.117Z,1.50
2023-05-11T16:32:52.232Z,1.30
2023-05-11T16:35:18.919Z,1.80
2023-05-11T16:37:46.713Z,1.55
2023-05-11T16:40:13.279Z,1.60
2023-05-11T16:42:39.800Z,1.60
2023-05-11T16:45:07.214Z,1.90
2023-05-11T16:47:33.895Z,1.73
2023-05-11T16:50:00.634Z,1.90
2023-05-11T16:52:27.210Z,1.70
2023-05-11T16:54:53.687Z,1.70
2023-05-11T16:57:20.250Z,1.40
2023-05-11T16:59:46.775Z,1.77
2023-05-11T17:02:13.384Z,1.63
2023-05-11T17:04:39.996Z,1.95
2023-05-11T17:07:08.608Z,1.88
2023-05-11T17:09:35.098Z,1.70
2023-05-11T17:12:02.764Z,2.00
2023-05-11T17:14:29.270Z,1.77
2023-05-11T17:16:55.785Z,1.90
2023-05-11T17:19:22.299Z,2.25
2023-05-11T17:21:48.954Z,1.90
2023-05-11T17:24:15.487Z,1.73
2023-05-11T17:26:47.841Z,1.55
2023-05-11T17:29:16.497Z,1.73
2023-05-11T17:31:43.347Z,1.95
2023-05-11T17:34:10.395Z,1.90
2023-05-11T17:36:37.169Z,1.27
2023-05-11T17:39:03.789Z,1.65
2023-05-11T17:41:30.308Z,1.55
2023-05-11T17:43:57.245Z,1.50
2023-05-11T17:46:23.792Z,1.55
2023-05-11T17:48:50.328Z,1.58
2023-05-11T17:51:16.881Z,1.90
2023-05-11T17:53:43.365Z,1.90
2023-05-11T17:56:11.785Z,1.80
2023-05-11T17:58:38.421Z,1.80
2023-05-11T18:01:09.097Z,1.80
2023-05-11T18:06:02.669Z,2.63
2023-05-11T18:08:29.167Z,2.00
2023-05-11T18:10:55.733Z,1.67
2023-05-11T18:13:22.731Z,1.60
2023-05-11T18:15:49.471Z,2.00
2023-05-11T18:18:16.345Z,2.20
2023-05-11T18:20:45.716Z,2.22
2023-05-11T18:23:13.170Z,1.80
2023-05-11T18:25:39.940Z,2.05
2023-05-11T18:28:06.507Z,1.80
2023-05-11T18:30:33.578Z,1.88
2023-05-11T18:33:00.244Z,1.92
2023-05-11T18:35:26.830Z,2.10
2023-05-11T18:37:54.232Z,1.77
2023-05-11T18:40:21.156Z,1.48
2023-05-11T18:42:47.910Z,1.77
2023-05-11T18:45:14.783Z,1.95
2023-05-11T18:47:46.113Z,2.05
2023-05-11T18:50:13.175Z,2.03
2023-05-11T18:52:39.750Z,2.10
2023-05-11T18:55:06.724Z,1.73
2023-05-11T18:57:34.413Z,1.90
2023-05-11T19:00:01.227Z,2.00
2023-05-11T19:02:28.016Z,2.03
2023-05-11T19:04:54.732Z,1.83
2023-05-11T19:07:21.330Z,2.22
2023-05-11T19:09:47.871Z,2.60
2023-05-11T19:12:14.491Z,2.10
2023-05-11T19:14:41.213Z,2.17
2023-05-11T19:17:07.783Z,2.20
2023-05-11T19:19:34.367Z,2.20
2023-05-11T19:22:01.042Z,2.78
2023-05-11T19:24:28.222Z,2.83
2023-05-11T19:27:05.994Z,2.40
2023-05-11T19:29:34.890Z,2.33
2023-05-11T19:32:01.762Z,3.30
2023-05-11T19:34:28.549Z,2.67
2023-05-11T19:36:55.101Z,2.72
2023-05-11T19:39:21.578Z,2.15
2023-05-11T19:41:48.093Z,2.30
2023-05-11T19:44:14.586Z,2.53
2023-05-11T19:46:46.313Z,2.67
2023-05-11T19:49:13.980Z,2.30
2023-05-11T19:51:40.509Z,2.35
2023-05-11T19:54:07.010Z,2.58
2023-05-11T19:56:33.887Z,2.20
2023-05-11T19:59:00.615Z,2.55
2023-05-11T20:01:27.253Z,2.47
2023-05-11T20:03:53.967Z,2.63
2023-05-11T20:06:20.592Z,2.40
2023-05-11T20:08:48.784Z,2.45
2023-05-11T20:11:15.583Z,2.40
2023-05-11T20:13:43.959Z,2.70
2023-05-11T20:16:10.688Z,3.10
2023-05-11T20:18:37.486Z,2.78
2023-05-11T20:21:04.316Z,2.70
2023-05-11T20:23:30.883Z,2.75
2023-05-11T20:25:57.431Z,2.45
2023-05-11T20:28:27.227Z,2.72
2023-05-11T20:30:55.971Z,2.70
2023-05-11T20:35:53.370Z,3.00
2023-05-11T20:38:20.260Z,2.90
2023-05-11T20:40:46.805Z,2.80
2023-05-11T20:43:14.782Z,2.95
2023-05-11T20:45:41.803Z,2.63
2023-05-11T20:48:08.551Z,3.05
2023-05-11T20:50:35.111Z,2.97
2023-05-11T20:53:01.673Z,3.30
2023-05-11T20:55:28.835Z,2.90
2023-05-11T20:57:55.396Z,2.88
2023-05-11T21:00:22.048Z,3.10
2023-05-11T21:02:48.915Z,3.08
2023-05-11T21:05:15.631Z,2.75
2023-05-11T21:07:42.144Z,2.78
2023-05-11T21:10:11.046Z,3.35
2023-05-11T21:12:37.608Z,2.85
2023-05-11T21:15:04.467Z,3.10
2023-05-11T21:17:31.108Z,2.60
2023-05-11T21:19:57.654Z,2.85
2023-05-11T21:22:24.217Z,2.92
2023-05-11T21:24:50.751Z,2.97
2023-05-11T21:27:17.276Z,2.60
2023-05-11T21:29:43.880Z,2.97
2023-05-11T21:32:10.542Z,2.95
2023-05-11T21:34:37.097Z,3.00
2023-05-11T21:37:03.664Z,3.10
2023-05-11T21:39:30.172Z,2.80
2023-05-11T21:41:56.892Z,3.08
2023-05-11T21:44:23.486Z,3.30
2023-05-11T21:46:50.505Z,3.30
2023-05-11T21:49:17.189Z,2.75
2023-05-11T21:51:43.693Z,3.58
2023-05-11T21:54:10.270Z,3.60
2023-05-11T21:56:36.922Z,2.78
2023-05-11T21:59:03.547Z,3.13
2023-05-11T22:01:30.062Z,2.75
2023-05-11T22:03:56.767Z,3.40
2023-05-11T22:06:23.403Z,3.00
2023-05-11T22:08:49.917Z,3.35
2023-05-11T22:11:16.450Z,3.45
2023-05-11T22:13:42.967Z,3.60
2023-05-11T22:16:09.526Z,3.33
2023-05-11T22:18:36.103Z,3.75
2023-05-11T22:21:02.866Z,3.30
2023-05-11T22:23:29.401Z,3.58
2023-05-11T22:25:55.914Z,3.30
2023-05-11T22:28:22.928Z,3.60
2023-05-11T22:30:49.495Z,3.47
2023-05-11T22:33:16.026Z,3.35
2023-05-11T22:35:42.558Z,3.60
2023-05-11T22:38:09.062Z,4.00
2023-05-11T22:40:35.586Z,3.63
2023-05-11T22:43:03.231Z,4.18
2023-05-11T22:45:29.790Z,3.95
2023-05-11T22:47:56.289Z,3.67
2023-05-11T22:50:22.820Z,3.88
2023-05-11T22:52:49.307Z,3.92
2023-05-11T22:55:15.897Z,3.85
2023-05-11T22:57:42.425Z,4.10
2023-05-11T23:00:12.225Z,4.20
2023-05-11T23:02:38.782Z,4.10
2023-05-11T23:05:05.846Z,3.90
2023-05-11T23:07:32.388Z,4.55
2023-05-11T23:09:58.990Z,4.63
2023-05-11T23:12:25.482Z,3.58
2023-05-11T23:14:52.381Z,3.80
2023-05-11T23:17:18.922Z,3.78
2023-05-11T23:19:45.446Z,4.07
2023-05-11T23:22:11.989Z,4.10
2023-05-11T23:24:38.468Z,4.13
2023-05-11T23:27:05.190Z,4.30
2023-05-11T23:29:31.903Z,4.10
2023-05-11T23:31:58.417Z,4.00
2023-05-11T23:34:24.912Z,4.03
2023-05-11T23:36:51.510Z,4.10
2023-05-11T23:39:18.007Z,3.75
2023-05-11T23:41:44.673Z,3.78
2023-05-11T23:44:11.680Z,4.18
2023-05-11T23:46:38.615Z,4.10
2023-05-11T23:49:05.153Z,4.45
2023-05-11T23:51:32.377Z,3.72
2023-05-11T23:53:59.617Z,4.43
2023-05-11T23:56:26.192Z,4.22
2023-05-11T23:58:52.741Z,4.38
